• Join FlightAware (Why Join?)
  • Login
  • US Flag 
Gobble Gobble! 
09:52PM EST


 

Airport Tracker/Info


-or-


 

Live Flight TrackerFlight Track Log ✈ FSR411 ✈ 31-Aug-2013 ✈ KCMI - KCPS

Flight Track Log - Related Links

Times and Time Zones

All times are in EDT time to prevent confusion due to time zone crossing. See the FSR411 flight status page for this flight to view local times or setup timezone preferences in your user account.

Time Position Orientation Groundspeed Altitude Reporting Facility
EDT Latitude Longitude Course Direction KTS MPH feet Rate Location/Type
11:15PM 39.9936 -88.3358 225° Southwest 188 216 3,900  Level Kansas City Center
11:16PM 39.9408 -88.4044 225° Southwest 263 303 7,200 2,820 Climbing Chicago Center
11:17PM 39.8856 -88.4775 225° Southwest 280 322 9,500 1,380 Climbing Chicago Center
11:18PM 39.8250 -88.5561 225° Southwest 308 354 10,000 240 Climbing Chicago Center
11:19PM 39.7528 -88.6456 224° Southwest 344 396 10,000  Level Kansas City Center
11:20PM 39.6839 -88.7344 225° Southwest 348 400 10,000  Level Kansas City Center
11:21PM 39.4280 -89.0469 225° Southwest  Level FlightAware Approximate
11:21PM 39.6144 -88.8228 224° Southwest 350 403 10,000  Level Kansas City Center
11:22PM 39.5453 -88.9111 225° Southwest 349 402 10,000  Level Kansas City Center
11:23PM 39.4772 -88.9981 225° Southwest 346 398 10,000  Level Kansas City Center
11:24PM 39.3986 -89.0961 224° Southwest 344 396 10,000  Level Kansas City Center
11:25PM 39.3294 -89.1847 225° Southwest 348 400 10,000  Level Kansas City Center
11:26PM 39.2603 -89.2717 224° Southwest 348 400 10,000  Level Kansas City Center
11:27PM 39.1908 -89.3581 224° Southwest 348 400 10,000  Level Kansas City Center
11:28PM 39.1158 -89.4528 224° Southwest 351 404 10,100  Climbing Kansas City Center
11:29PM 39.0419 -89.5294 219° Southwest 340 391 10,100 -60 Level Kansas City Center
11:30PM 38.9592 -89.5769 204° Southwest 328 377 10,000 -120 Descending Kansas City Center
11:31PM 38.8756 -89.6256 204° Southwest 328 377 9,900 -960 Descending Kansas City Center
11:32PM 38.8044 -89.6642 203° Southwest 302 348 8,100 -1,860 Descending Kansas City Center
11:33PM 38.7306 -89.7053 203° Southwest 292 336 6,200 -1,740 Descending Kansas City Center
11:34PM 38.6608 -89.7453 204° Southwest 283 326 4,700 -1,380 Descending Kansas City Center
11:35PM 38.5969 -89.7969 212° Southwest 279 321 3,500 -840 Descending Kansas City Center
11:36PM 38.5431 -89.8456 215° Southwest 260 299 3,100 -300 Descending Kansas City Center
11:37PM 38.5114 -89.8947 231° Southwest 213 245 3,000 -300 Descending Kansas City Center
11:38PM 38.4844 -89.9458 236° Southwest 188 216 2,500 -300 Descending Kansas City Center
11:39PM 38.4903 -89.9950 279° West 158 182 2,500 -120 Level Kansas City Center
11:40PM 38.5097 -90.0367 301° West 146 168 2,300 -420 Descending Kansas City Center
11:41PM 38.5269 -90.0711 303° West 131 151 1,700 -600 Descending Kansas City Center
11:42PM 38.5433 -90.1039 303° West 119 137 1,200 -600 Descending Kansas City Center
11:43PM 38.5614 -90.1397 303° West 117 135 600 -360 Descending Kansas City Center
11:44PM 38.5797 -90.1764 303° West 118 136 500 -120 Descending Kansas City Center